This is the latest recevied weather packets stored in our database for station/object NE1CU. If no packets are shown the sender has not sent any weather packets the latest 10 day(s).
| Time | Temp. | Humidity | Pressure | Rain* | Wind** | Luminosity | Snow |
|---|---|---|---|---|---|---|---|
| 1777730765 | 13.33° C | 67% | 1011.8 hPa | 0 mm | - | 266 W/m² | - |
| 1777730460 | 13.89° C | 67% | 1011.9 hPa | 0 mm | - | 319 W/m² | - |
| 1777730156 | 13.33° C | 69% | 1011.7 hPa | 0 mm | - | 408 W/m² | - |
| 1777729853 | 13.33° C | 71% | 1011.8 hPa | 0 mm | - | 355 W/m² | - |
| 1777729550 | 13.33° C | 69% | 1012.1 hPa | 0 mm | - | 333 W/m² | - |
| 1777729247 | 12.78° C | 75% | 1011.9 hPa | 0 mm | - | 598 W/m² | - |
| 1777728944 | 12.78° C | 72% | 1011.9 hPa | 0 mm | - | 206 W/m² | - |
| 1777728641 | 12.22° C | 75% | 1011.8 hPa | 0 mm | - | 259 W/m² | - |
| 1777728338 | 12.22° C | 76% | 1011.9 hPa | 0 mm | - | 218 W/m² | - |
| 1777728034 | 12.22° C | 76% | 1011.9 hPa | 0 mm | - | 149 W/m² | - |
| 1777727731 | 12.22° C | 76% | 1011.8 hPa | 0 mm | - | 170 W/m² | - |
| 1777727428 | 12.22° C | 75% | 1011.8 hPa | 0 mm | - | 172 W/m² | - |
| 1777727126 | 11.67° C | 76% | 1011.8 hPa | 0 mm | - | 219 W/m² | - |
| 1777726824 | 11.67° C | 78% | 1011.9 hPa | 0 mm | - | 149 W/m² | - |
| 1777726520 | 11.67° C | 80% | 1011.8 hPa | 0 mm | - | 188 W/m² | - |
| 1777726217 | 11.11° C | 80% | 1011.9 hPa | 0 mm | - | 129 W/m² | - |
| 1777725914 | 11.11° C | 81% | 1012 hPa | 0 mm | - | 161 W/m² | - |
| 1777725611 | 11.11° C | 79% | 1011.9 hPa | 0 mm | - | 103 W/m² | - |
| 1777725309 | 11.11° C | 78% | 1012 hPa | 0 mm | - | 131 W/m² | - |
| 1777725005 | 11.11° C | 79% | 1011.9 hPa | 0 mm | - | 141 W/m² | - |
| 1777724701 | 11.11° C | 79% | 1011.9 hPa | 0 mm | - | 145 W/m² | - |
| 1777724400 | 11.11° C | 80% | 1011.9 hPa | 0 mm | - | 180 W/m² | - |
| 1777724096 | 11.11° C | 83% | 1011.8 hPa | 1.27 mm | - | 149 W/m² | - |
| 1777723794 | 10.56° C | 86% | 1011.9 hPa | 1.27 mm | - | 174 W/m² | - |
| 1777723490 | 10.56° C | 87% | 1012 hPa | 0 mm | - | 172 W/m² | - |
* Rain latest hour (hover to see other rain measurements)
** Current wind speed in m/s (hover to see current wind gust speed)